createdAt,value
2023-03-06T00:01:00.205Z,65.17
2023-03-06T00:03:28.657Z,65.24
2023-03-06T00:05:59.007Z,65.25
2023-03-06T00:08:29.005Z,65.18
2023-03-06T00:10:57.789Z,65.22
2023-03-06T00:13:30.252Z,65.29
2023-03-06T00:16:01.166Z,65.40
2023-03-06T00:18:29.498Z,65.47
2023-03-06T00:20:57.980Z,65.54
2023-03-06T00:23:27.674Z,65.48
2023-03-06T00:25:55.973Z,65.57
2023-03-06T00:28:24.230Z,65.70
2023-03-06T00:30:52.438Z,65.87
2023-03-06T00:33:22.748Z,66.10
2023-03-06T00:35:51.063Z,66.31
2023-03-06T00:38:19.393Z,66.26
2023-03-06T00:40:47.625Z,66.04
2023-03-06T00:43:15.758Z,66.00
2023-03-06T00:45:43.985Z,66.00
2023-03-06T00:48:12.312Z,66.24
2023-03-06T00:50:40.483Z,69.42
2023-03-06T00:53:08.868Z,70.44
2023-03-06T00:55:37.487Z,70.86
2023-03-06T00:58:05.841Z,71.19
2023-03-06T01:00:34.108Z,71.27
2023-03-06T01:03:02.291Z,71.52
2023-03-06T01:05:34.460Z,71.79
2023-03-06T01:08:02.857Z,71.89
2023-03-06T01:10:31.537Z,72.06
2023-03-06T01:12:59.696Z,72.27
2023-03-06T01:15:27.731Z,72.42
2023-03-06T01:17:55.958Z,72.55
2023-03-06T01:20:24.340Z,72.50
2023-03-06T01:22:52.722Z,72.69
2023-03-06T01:25:24.588Z,72.93
2023-03-06T01:27:53.291Z,73.14
2023-03-06T01:30:21.648Z,73.38
2023-03-06T01:32:49.824Z,73.50
2023-03-06T01:35:18.287Z,73.79
2023-03-06T01:37:47.309Z,73.94
2023-03-06T01:40:15.773Z,73.89
2023-03-06T01:42:44.944Z,74.08
2023-03-06T01:45:14.459Z,74.01
2023-03-06T01:47:42.687Z,74.12
2023-03-06T01:50:11.988Z,74.22
2023-03-06T01:52:51.023Z,74.36
2023-03-06T01:55:26.871Z,74.38
2023-03-06T01:57:58.115Z,74.37
2023-03-06T02:00:29.393Z,74.44
2023-03-06T02:03:03.184Z,74.54
2023-03-06T02:05:31.561Z,74.58
2023-03-06T02:08:01.275Z,74.74
2023-03-06T02:10:30.274Z,74.86
2023-03-06T02:12:58.771Z,75.06
2023-03-06T02:15:29.392Z,75.15
2023-03-06T02:17:57.776Z,75.22
2023-03-06T02:20:43.863Z,75.15
2023-03-06T02:23:45.942Z,75.16
2023-03-06T02:26:15.654Z,75.21
2023-03-06T02:28:43.935Z,75.31
2023-03-06T02:31:23.776Z,75.47
2023-03-06T02:34:15.310Z,75.63
2023-03-06T02:36:47.892Z,75.68
2023-03-06T02:39:19.813Z,75.81
2023-03-06T02:41:48.131Z,75.93
2023-03-06T02:44:16.642Z,75.90
2023-03-06T02:46:44.794Z,75.93
2023-03-06T02:49:12.961Z,75.96
2023-03-06T02:51:41.149Z,76.00
2023-03-06T02:54:09.270Z,75.79
2023-03-06T02:56:37.470Z,75.68
2023-03-06T02:59:05.785Z,75.64
2023-03-06T03:01:35.390Z,75.64
2023-03-06T03:04:05.419Z,75.82
2023-03-06T03:06:34.446Z,75.97
2023-03-06T03:09:03.222Z,76.00
2023-03-06T03:11:31.907Z,76.02
2023-03-06T03:14:00.285Z,76.22
2023-03-06T03:16:29.085Z,76.29
2023-03-06T03:18:59.405Z,76.46
2023-03-06T03:21:27.866Z,76.35
2023-03-06T03:23:56.571Z,76.57
2023-03-06T03:26:26.177Z,76.41
2023-03-06T03:29:08.281Z,76.58
2023-03-06T03:31:37.011Z,76.55
2023-03-06T03:34:05.365Z,76.62
2023-03-06T03:36:36.331Z,76.48
2023-03-06T03:39:04.763Z,76.50
2023-03-06T03:41:33.870Z,76.52
2023-03-06T03:44:04.276Z,76.43
2023-03-06T03:46:33.510Z,76.59
2023-03-06T03:49:02.569Z,76.56
2023-03-06T03:51:31.867Z,76.72
2023-03-06T03:54:00.369Z,76.79
2023-03-06T03:56:30.993Z,76.91
2023-03-06T03:59:03.260Z,77.01
2023-03-06T04:01:39.154Z,77.26
2023-03-06T04:04:07.892Z,77.39
2023-03-06T04:06:36.681Z,77.64
2023-03-06T04:09:06.497Z,77.85
2023-03-06T04:11:36.001Z,78.00
2023-03-06T04:14:04.586Z,78.21
2023-03-06T04:16:33.025Z,78.35
2023-03-06T04:19:01.364Z,78.54
2023-03-06T04:21:29.624Z,78.58
2023-03-06T04:23:58.923Z,78.83
2023-03-06T04:26:27.301Z,78.86
2023-03-06T04:28:56.398Z,79.04
2023-03-06T04:31:25.140Z,79.03
2023-03-06T04:33:53.779Z,79.12
2023-03-06T04:36:28.630Z,79.11
2023-03-06T04:38:59.950Z,79.12
2023-03-06T04:41:28.759Z,79.33
2023-03-06T04:43:57.326Z,79.42
2023-03-06T04:46:25.592Z,79.53
2023-03-06T04:48:53.983Z,79.51
2023-03-06T04:51:22.065Z,79.50
2023-03-06T04:53:50.530Z,79.48
2023-03-06T04:56:18.952Z,79.53
2023-03-06T04:58:47.408Z,79.35
2023-03-06T05:01:15.679Z,79.18
2023-03-06T05:03:43.771Z,79.02
2023-03-06T05:06:11.871Z,78.85
2023-03-06T05:08:40.186Z,78.69
2023-03-06T05:11:08.554Z,78.60
2023-03-06T05:13:36.747Z,78.55
2023-03-06T05:16:06.535Z,78.37
2023-03-06T05:18:35.566Z,78.18
2023-03-06T05:21:04.829Z,78.07
2023-03-06T05:23:36.516Z,77.79
2023-03-06T05:26:09.976Z,77.62
2023-03-06T05:28:39.149Z,77.52
2023-03-06T05:31:08.162Z,77.38
2023-03-06T05:33:36.674Z,77.09
2023-03-06T05:36:07.493Z,77.01
2023-03-06T05:38:36.082Z,76.94
2023-03-06T05:41:05.091Z,76.59
2023-03-06T05:43:34.541Z,76.59
2023-03-06T05:46:06.225Z,76.57
2023-03-06T05:48:36.228Z,76.43
2023-03-06T05:51:05.979Z,76.19
2023-03-06T05:53:34.244Z,76.06
2023-03-06T05:56:06.297Z,75.99
2023-03-06T05:58:34.788Z,75.70
2023-03-06T06:01:12.560Z,75.59
2023-03-06T06:03:41.856Z,75.45
2023-03-06T06:06:12.810Z,75.26
2023-03-06T06:08:42.231Z,75.08
2023-03-06T06:11:12.261Z,74.90
2023-03-06T06:13:40.847Z,74.80
2023-03-06T06:16:11.870Z,74.71
2023-03-06T06:18:41.431Z,74.52
2023-03-06T06:21:12.051Z,74.37
2023-03-06T06:23:41.090Z,74.17
2023-03-06T06:26:10.819Z,74.13
2023-03-06T06:28:39.227Z,73.99
2023-03-06T06:31:09.964Z,73.87
2023-03-06T06:33:39.872Z,73.74
2023-03-06T06:36:19.719Z,73.70
2023-03-06T06:38:49.818Z,73.51
2023-03-06T06:41:51.034Z,73.25
2023-03-06T06:44:08.867Z,72.97
2023-03-06T06:49:26.733Z,72.60
2023-03-06T06:51:55.440Z,72.36
2023-03-06T06:54:23.919Z,72.01
2023-03-06T06:56:52.407Z,71.94
2023-03-06T06:59:24.015Z,71.75
2023-03-06T07:01:53.809Z,71.50
2023-03-06T07:04:22.562Z,71.12
2023-03-06T07:06:51.311Z,71.07
2023-03-06T07:09:20.394Z,71.00
2023-03-06T07:11:49.409Z,70.76
2023-03-06T07:14:18.790Z,70.64
2023-03-06T07:16:47.776Z,70.26
2023-03-06T07:19:16.363Z,70.13
2023-03-06T07:21:45.225Z,70.03
2023-03-06T07:24:14.054Z,69.95
2023-03-06T07:26:49.426Z,69.79
2023-03-06T07:29:18.297Z,69.61
2023-03-06T07:31:48.134Z,69.46
2023-03-06T07:34:16.699Z,69.38
2023-03-06T07:36:45.279Z,69.28
2023-03-06T07:39:14.043Z,69.10
2023-03-06T07:41:42.625Z,69.13
2023-03-06T07:44:11.620Z,69.09
2023-03-06T07:46:40.438Z,68.75
2023-03-06T07:49:08.996Z,68.63
2023-03-06T07:51:37.669Z,68.32
2023-03-06T07:54:06.157Z,68.03
2023-03-06T07:56:37.552Z,67.80
2023-03-06T07:59:06.376Z,67.47
2023-03-06T08:01:36.731Z,67.21
2023-03-06T08:04:06.190Z,66.74
2023-03-06T08:06:35.092Z,66.54
2023-03-06T08:09:04.270Z,66.64
2023-03-06T08:11:33.500Z,66.54
2023-03-06T08:14:02.028Z,66.25
2023-03-06T08:16:30.908Z,66.04
2023-03-06T08:18:59.559Z,65.79
2023-03-06T08:21:29.295Z,65.98
2023-03-06T08:23:58.783Z,65.81
2023-03-06T08:26:30.555Z,65.76
2023-03-06T08:29:01.444Z,65.52
2023-03-06T08:31:33.166Z,65.36
2023-03-06T08:34:07.557Z,65.46
2023-03-06T08:36:36.342Z,65.33
2023-03-06T08:39:05.509Z,65.16
2023-03-06T08:41:35.256Z,65.16
2023-03-06T08:44:05.439Z,64.94
2023-03-06T08:46:35.277Z,64.67
2023-03-06T08:49:04.139Z,64.44
2023-03-06T08:51:33.191Z,64.48
2023-03-06T08:54:01.761Z,64.65
2023-03-06T08:56:32.727Z,64.42
2023-03-06T08:59:03.999Z,64.43
2023-03-06T09:01:36.916Z,64.38
2023-03-06T09:04:08.396Z,64.11
2023-03-06T09:06:40.356Z,63.74
2023-03-06T09:09:09.656Z,63.30
2023-03-06T09:11:38.829Z,63.27
2023-03-06T09:14:07.696Z,62.90
2023-03-06T09:16:36.223Z,62.60
2023-03-06T09:19:04.891Z,62.45
2023-03-06T09:21:33.444Z,62.17
2023-03-06T09:24:02.147Z,62.31
2023-03-06T09:26:45.113Z,62.33
2023-03-06T09:29:16.705Z,62.67
2023-03-06T09:31:45.868Z,62.21
2023-03-06T09:34:14.300Z,61.81
2023-03-06T09:36:55.818Z,61.61
2023-03-06T09:39:26.354Z,61.06
2023-03-06T09:41:57.483Z,61.43
2023-03-06T09:44:30.009Z,61.23
2023-03-06T09:47:57.993Z,61.38
2023-03-06T09:50:44.826Z,60.93
2023-03-06T09:53:20.727Z,60.93
2023-03-06T09:55:58.470Z,60.35
2023-03-06T09:58:29.185Z,60.46
2023-03-06T10:01:17.636Z,60.19
2023-03-06T10:03:54.705Z,59.70
2023-03-06T10:06:32.068Z,60.18
2023-03-06T10:09:04.375Z,60.19
2023-03-06T10:11:47.948Z,59.63
2023-03-06T10:14:17.468Z,59.96
2023-03-06T10:16:47.334Z,59.69
2023-03-06T10:19:18.764Z,59.63
2023-03-06T10:21:59.555Z,59.16
2023-03-06T10:24:34.857Z,59.28
2023-03-06T10:27:47.878Z,59.33
2023-03-06T10:30:46.634Z,58.46
2023-03-06T10:33:24.020Z,58.54
2023-03-06T10:35:55.295Z,58.91
2023-03-06T10:38:26.769Z,58.41
2023-03-06T10:41:12.457Z,58.86
2023-03-06T10:43:44.026Z,57.93
2023-03-06T10:46:14.875Z,57.82
2023-03-06T10:48:43.524Z,57.68
2023-03-06T10:51:25.877Z,57.52
2023-03-06T10:54:14.569Z,56.66
2023-03-06T10:56:45.527Z,56.55
2023-03-06T10:59:20.194Z,56.97
2023-03-06T11:01:51.288Z,56.89
2023-03-06T11:04:34.945Z,55.94
2023-03-06T11:07:33.527Z,56.29
2023-03-06T11:10:18.082Z,55.72
2023-03-06T11:13:23.440Z,56.16
2023-03-06T11:16:01.989Z,56.06
2023-03-06T11:18:36.873Z,55.61
2023-03-06T11:21:24.595Z,56.10
2023-03-06T11:23:54.933Z,55.26
2023-03-06T11:26:32.718Z,55.30
2023-03-06T11:29:07.519Z,54.63
2023-03-06T11:31:43.367Z,53.58
2023-03-06T11:34:11.997Z,53.10
2023-03-06T11:37:10.680Z,53.48
2023-03-06T11:40:02.812Z,53.58
2023-03-06T11:42:53.129Z,53.29
2023-03-06T11:45:27.609Z,53.36
2023-03-06T11:48:21.104Z,52.91
2023-03-06T11:50:52.988Z,52.75
2023-03-06T11:53:28.379Z,52.72
2023-03-06T11:56:07.747Z,52.80
2023-03-06T11:58:57.531Z,53.17
2023-03-06T12:01:47.953Z,53.08
2023-03-06T12:04:39.438Z,53.07
2023-03-06T12:07:16.728Z,52.49
2023-03-06T12:09:49.813Z,51.90
2023-03-06T12:12:49.536Z,51.81
2023-03-06T12:15:26.815Z,52.32
2023-03-06T12:18:01.190Z,51.94
2023-03-06T12:20:49.990Z,52.41
2023-03-06T12:23:43.229Z,52.72
2023-03-06T12:26:26.862Z,53.32
2023-03-06T12:29:21.344Z,53.81
2023-03-06T12:32:28.460Z,54.01
2023-03-06T12:35:15.177Z,54.35
2023-03-06T12:38:08.615Z,54.46
2023-03-06T12:40:40.470Z,54.01
2023-03-06T12:43:33.951Z,53.91
2023-03-06T12:46:18.927Z,53.43
2023-03-06T12:49:11.192Z,53.58
2023-03-06T12:51:41.888Z,53.80
2023-03-06T12:54:14.354Z,53.84
2023-03-06T12:56:43.614Z,53.65
2023-03-06T12:59:48.715Z,52.92
2023-03-06T13:02:42.064Z,53.41
2023-03-06T13:05:28.974Z,53.32
2023-03-06T13:08:27.870Z,53.87
2023-03-06T13:11:34.084Z,55.60
2023-03-06T13:14:22.761Z,57.61
2023-03-06T13:16:51.569Z,59.66
2023-03-06T13:19:27.198Z,61.78
2023-03-06T13:21:55.467Z,64.80
2023-03-06T13:24:26.210Z,66.23
2023-03-06T13:27:07.296Z,67.40
2023-03-06T13:29:49.985Z,67.94
2023-03-06T13:32:28.713Z,68.41
2023-03-06T13:34:57.314Z,68.60
2023-03-06T13:37:25.630Z,68.68
2023-03-06T13:39:57.642Z,68.97
2023-03-06T13:42:36.248Z,69.35
2023-03-06T13:45:09.296Z,69.48
2023-03-06T13:48:21.402Z,69.69
2023-03-06T13:50:47.512Z,69.37
2023-03-06T13:53:51.589Z,69.24
2023-03-06T13:56:42.946Z,69.15
2023-03-06T13:59:41.751Z,68.99
2023-03-06T14:02:31.973Z,69.00
2023-03-06T14:05:02.711Z,68.31
2023-03-06T14:07:33.746Z,68.26
2023-03-06T14:10:14.284Z,68.27
2023-03-06T14:12:52.947Z,67.96
2023-03-06T14:15:53.182Z,67.50
2023-03-06T14:18:41.802Z,67.23
2023-03-06T14:21:16.087Z,67.29
2023-03-06T14:23:46.584Z,66.96
2023-03-06T14:26:22.149Z,66.19
2023-03-06T14:28:54.167Z,66.01
2023-03-06T14:31:25.629Z,65.92
2023-03-06T14:33:54.280Z,65.76
2023-03-06T14:36:31.534Z,65.11
2023-03-06T14:39:05.122Z,65.06
2023-03-06T14:41:36.263Z,65.40
2023-03-06T14:44:19.657Z,65.20
2023-03-06T14:46:55.336Z,65.61
2023-03-06T14:49:26.538Z,65.78
2023-03-06T14:52:00.722Z,65.81
2023-03-06T14:54:33.547Z,65.84
2023-03-06T14:57:06.634Z,65.52
2023-03-06T14:59:58.700Z,65.49
2023-03-06T15:02:32.974Z,65.51
2023-03-06T15:05:12.178Z,65.27
2023-03-06T15:07:45.851Z,61.73
2023-03-06T15:10:27.231Z,60.68
2023-03-06T15:12:56.392Z,60.82
2023-03-06T15:15:31.797Z,60.21
2023-03-06T15:18:00.489Z,60.16
2023-03-06T15:20:42.721Z,60.16
2023-03-06T15:23:27.224Z,59.45
2023-03-06T15:26:01.246Z,58.92
2023-03-06T15:28:39.868Z,58.86
2023-03-06T15:31:11.343Z,58.81
2023-03-06T15:33:39.848Z,58.70
2023-03-06T15:36:21.575Z,58.59
2023-03-06T15:38:50.683Z,58.61
2023-03-06T15:41:39.674Z,58.56
2023-03-06T15:44:14.548Z,57.91
2023-03-06T15:46:43.043Z,57.60
2023-03-06T15:49:18.084Z,57.54
2023-03-06T15:51:46.553Z,57.49
2023-03-06T15:54:15.028Z,57.35
2023-03-06T15:56:46.266Z,57.12
2023-03-06T15:59:24.901Z,56.90
2023-03-06T16:01:55.003Z,56.96
2023-03-06T16:04:23.519Z,56.97
2023-03-06T16:06:51.955Z,57.01
2023-03-06T16:09:20.758Z,57.10
2023-03-06T16:11:51.228Z,57.18
2023-03-06T16:14:24.292Z,56.98
2023-03-06T16:16:54.609Z,56.97
2023-03-06T16:19:27.322Z,57.10
2023-03-06T16:21:56.985Z,57.22
2023-03-06T16:24:26.585Z,57.19
2023-03-06T16:26:56.988Z,57.25
2023-03-06T16:29:27.605Z,57.32
2023-03-06T16:31:59.238Z,57.45
2023-03-06T16:34:28.056Z,57.59
2023-03-06T16:36:56.683Z,57.62
2023-03-06T16:39:26.261Z,57.80
2023-03-06T16:41:55.963Z,57.92
2023-03-06T16:44:24.451Z,58.04
2023-03-06T16:46:53.133Z,58.19
2023-03-06T16:49:24.476Z,58.34
2023-03-06T16:51:54.616Z,58.33
2023-03-06T16:54:26.563Z,58.42
2023-03-06T16:56:57.102Z,58.33
2023-03-06T16:59:27.114Z,58.28
2023-03-06T17:01:57.341Z,58.35
2023-03-06T17:04:27.104Z,58.24
2023-03-06T17:06:57.075Z,58.00
2023-03-06T17:09:27.132Z,58.05
2023-03-06T17:11:55.970Z,58.06
2023-03-06T17:14:24.567Z,58.10
2023-03-06T17:16:54.679Z,58.37
2023-03-06T17:19:23.669Z,58.53
2023-03-06T17:21:52.550Z,58.61
2023-03-06T17:24:21.659Z,58.64
2023-03-06T17:26:51.651Z,58.56
2023-03-06T17:29:20.343Z,58.45
2023-03-06T17:31:49.677Z,58.30
2023-03-06T17:34:18.854Z,58.30
2023-03-06T17:36:47.950Z,58.34
2023-03-06T17:39:16.835Z,58.27
2023-03-06T17:41:46.527Z,58.11
2023-03-06T17:44:18.200Z,58.16
2023-03-06T17:46:47.059Z,58.01
2023-03-06T17:49:19.991Z,58.10
2023-03-06T17:51:50.462Z,58.04
2023-03-06T17:54:20.535Z,58.03
2023-03-06T17:56:49.403Z,58.07
2023-03-06T17:59:18.833Z,57.95
2023-03-06T18:01:48.485Z,58.13
2023-03-06T18:04:18.222Z,58.17
2023-03-06T18:06:48.231Z,58.13
2023-03-06T18:09:17.243Z,58.30
2023-03-06T18:11:46.588Z,58.88
2023-03-06T18:14:15.549Z,61.54
2023-03-06T18:16:44.621Z,62.36
2023-03-06T18:19:13.651Z,62.68
2023-03-06T18:21:42.226Z,62.95
2023-03-06T18:24:12.537Z,63.26
2023-03-06T18:26:42.787Z,63.60
2023-03-06T18:29:11.877Z,63.84
2023-03-06T18:31:43.205Z,63.99
2023-03-06T18:34:15.806Z,64.00
2023-03-06T18:36:47.693Z,64.04
2023-03-06T18:39:16.925Z,64.27
2023-03-06T18:41:45.601Z,64.37
2023-03-06T18:44:16.539Z,64.53
2023-03-06T18:46:46.128Z,64.65
2023-03-06T18:49:16.334Z,64.88
2023-03-06T18:51:47.000Z,64.95
2023-03-06T18:54:15.850Z,65.17
2023-03-06T18:56:44.951Z,65.23
2023-03-06T18:59:18.641Z,65.42
2023-03-06T19:01:48.687Z,65.48
2023-03-06T19:04:18.137Z,65.58
2023-03-06T19:06:47.296Z,65.57
2023-03-06T19:09:16.512Z,65.55
2023-03-06T19:11:47.294Z,65.55
2023-03-06T19:14:16.461Z,65.53
2023-03-06T19:16:45.135Z,65.62
2023-03-06T19:19:14.511Z,65.79
2023-03-06T19:21:43.390Z,66.17
2023-03-06T19:24:15.761Z,66.59
2023-03-06T19:26:45.095Z,67.04
2023-03-06T19:29:14.518Z,67.36
2023-03-06T19:31:44.229Z,67.78
2023-03-06T19:34:13.430Z,67.99
2023-03-06T19:36:42.995Z,68.31
2023-03-06T19:39:13.667Z,68.78
2023-03-06T19:41:43.821Z,69.13
2023-03-06T19:44:14.907Z,69.56
2023-03-06T19:46:44.152Z,69.77
2023-03-06T19:49:18.360Z,70.08
2023-03-06T19:51:47.754Z,70.30
2023-03-06T19:54:17.652Z,70.54
2023-03-06T19:56:47.063Z,70.65
2023-03-06T19:59:16.592Z,70.66
2023-03-06T20:01:45.465Z,70.86
2023-03-06T20:04:14.932Z,70.94
2023-03-06T20:06:45.788Z,71.10
2023-03-06T20:09:14.375Z,71.32
2023-03-06T20:11:42.965Z,71.57
2023-03-06T20:14:14.770Z,71.79
2023-03-06T20:16:43.370Z,71.96
2023-03-06T20:19:12.701Z,72.07
2023-03-06T20:21:41.165Z,72.15
2023-03-06T20:24:16.871Z,72.20
2023-03-06T20:26:47.468Z,72.18
2023-03-06T20:29:16.283Z,72.19
2023-03-06T20:31:45.041Z,72.36
2023-03-06T20:34:14.506Z,72.67
2023-03-06T20:36:42.880Z,72.80
2023-03-06T20:39:15.061Z,72.99
2023-03-06T20:41:44.995Z,73.02
2023-03-06T20:44:17.372Z,73.07
2023-03-06T20:46:47.990Z,73.06
2023-03-06T20:49:16.977Z,73.07
2023-03-06T20:51:45.944Z,73.03
2023-03-06T20:54:16.894Z,72.91
2023-03-06T20:56:49.119Z,72.87
2023-03-06T20:59:19.186Z,72.80
2023-03-06T21:01:48.989Z,72.79
2023-03-06T21:04:17.794Z,72.59
2023-03-06T21:06:47.484Z,72.66
2023-03-06T21:09:17.706Z,72.82
2023-03-06T21:11:47.497Z,73.00
2023-03-06T21:14:16.975Z,73.16
2023-03-06T21:16:45.623Z,73.27
2023-03-06T21:19:14.845Z,73.57
2023-03-06T21:21:43.612Z,73.69
2023-03-06T21:24:12.337Z,73.73
2023-03-06T21:29:24.717Z,73.53
2023-03-06T21:31:54.031Z,73.44
2023-03-06T21:34:26.501Z,73.25
2023-03-06T21:36:57.046Z,73.17
2023-03-06T21:39:26.150Z,72.89
2023-03-06T21:41:54.942Z,72.98
2023-03-06T21:44:24.668Z,72.91
2023-03-06T21:46:53.636Z,72.89
2023-03-06T21:49:26.719Z,72.99
2023-03-06T21:51:58.286Z,72.83
2023-03-06T21:54:30.128Z,72.91
2023-03-06T21:56:58.689Z,72.79
2023-03-06T21:59:30.377Z,72.74
2023-03-06T22:01:59.168Z,72.98
2023-03-06T22:04:27.867Z,72.97
2023-03-06T22:06:56.943Z,73.04
2023-03-06T22:09:25.609Z,72.89
2023-03-06T22:11:54.225Z,73.07
2023-03-06T22:14:22.803Z,73.09
2023-03-06T22:16:51.639Z,72.88
2023-03-06T22:19:19.951Z,73.09
2023-03-06T22:21:48.448Z,73.26
2023-03-06T22:24:16.710Z,73.23
2023-03-06T22:26:47.145Z,73.26
2023-03-06T22:29:15.628Z,73.44
2023-03-06T22:31:44.136Z,73.42
2023-03-06T22:34:12.479Z,73.38
2023-03-06T22:36:40.646Z,73.32
2023-03-06T22:39:12.809Z,73.36
2023-03-06T22:41:45.447Z,73.30
2023-03-06T22:44:18.494Z,73.26
2023-03-06T22:46:46.763Z,73.29
2023-03-06T22:49:17.055Z,73.30
2023-03-06T22:51:45.356Z,73.23
2023-03-06T22:54:13.533Z,73.15
2023-03-06T22:56:42.155Z,73.05
2023-03-06T22:59:10.403Z,72.98
2023-03-06T23:01:38.900Z,72.84
2023-03-06T23:04:11.271Z,72.85
2023-03-06T23:06:43.058Z,72.67
2023-03-06T23:09:21.563Z,72.74
2023-03-06T23:12:09.348Z,72.69
2023-03-06T23:14:56.488Z,72.72
2023-03-06T23:17:43.493Z,72.70
2023-03-06T23:20:30.525Z,72.69
2023-03-06T23:23:17.639Z,72.67
2023-03-06T23:25:46.008Z,72.57
2023-03-06T23:28:15.110Z,72.50
2023-03-06T23:30:44.130Z,72.49
2023-03-06T23:33:12.476Z,72.52
2023-03-06T23:35:40.907Z,72.47
2023-03-06T23:38:09.337Z,72.48
2023-03-06T23:40:38.952Z,72.47
2023-03-06T23:43:07.433Z,72.45
2023-03-06T23:45:35.812Z,72.50
2023-03-06T23:48:08.414Z,72.33
2023-03-06T23:50:40.442Z,72.35
2023-03-06T23:53:08.731Z,72.36
2023-03-06T23:55:41.671Z,72.54
2023-03-06T23:58:11.023Z,72.61
